Caribe Navigator — V2PW6 — position and weather

sailwx.info

Track history (hours):
 
Tides and Currents Weather Stations Pressure Air Temp Water Temp Dewpoint Dewpoint Depression Visibility Wind Speed Wind Dir Waves Ship Positions

Caribe Navigator

Last reported at 2015-May-22 00:32 UTC. Time now 2015-May-24 03:07 UTC.
Position N 25°31' W 080°01'.

Length 100 m; draft 5.3 m.

Type: Cargo ship. MMSI: 305289000.

Date/timePositionNaut miles runAvg speedWind from/ knotsBaromVisibWave heightAir tempDewpointWater temp
2015-May-22 00:32N 25°31' W 080°01'10 9.9
2015-May-21 23:33N 25°40' W 080°01'1111.1
2015-May-21 22:33N 25°51' W 080°03'1211.7
2015-May-21 21:33N 26°03' W 080°05'3 2.9
2015-May-21 20:25N 26°05' W 080°07'0 0.0
2015-May-21 19:25N 26°05' W 080°07'0 0.0
2015-May-21 18:25N 26°05' W 080°07'0 0.0
2015-May-21 17:25N 26°05' W 080°07'0 0.0
2015-May-21 16:25N 26°05' W 080°07'0 0.0
2015-May-21 15:28N 26°05' W 080°07'0 0.0
2015-May-21 14:28N 26°05' W 080°07'0 0.0
2015-May-21 13:28N 26°05' W 080°07'0 0.0
2015-May-21 12:28N 26°05' W 080°07'0 0.0
2015-May-21 11:28N 26°05' W 080°07'0 0.0
2015-May-21 10:28N 26°05' W 080°07'0 0.0
2015-May-21 09:31N 26°05' W 080°07'0 0.0
2015-May-21 08:31N 26°05' W 080°07'0 0.0
2015-May-21 07:31N 26°05' W 080°07'0 0.0
2015-May-21 06:31N 26°05' W 080°07'0 0.0
2015-May-21 05:31N 26°05' W 080°07'0 0.0
2015-May-21 04:33N 26°05' W 080°07'0 0.0
2015-May-21 03:33N 26°05' W 080°07'0 0.0
2015-May-21 02:33N 26°05' W 080°07'0 0.0
2015-May-21 01:33N 26°05' W 080°07'0 0.0
2015-May-21 00:33N 26°05' W 080°07'0 0.0
2015-May-20 23:33N 26°05' W 080°07'0 0.0
2015-May-20 22:33N 26°05' W 080°07'0 0.0
2015-May-20 21:33N 26°05' W 080°07'0 0.0
2015-May-20 20:33N 26°05' W 080°07'0 0.0
2015-May-20 19:33N 26°05' W 080°07'0 0.0
2015-May-20 18:33N 26°05' W 080°07'4 4.1
2015-May-20 17:33N 26°03' W 080°03'1 0.9
2015-May-20 16:33N 26°03' W 080°04'9 9.1
2015-May-20 15:33N 25°54' W 080°01'  
2015-May-14 23:33N 25°37' W 080°02'10 9.6
2015-May-14 22:33N 25°46' W 080°02'9 9.4
2015-May-14 21:33N 25°55' W 080°04'1010.1
2015-May-14 20:33N 26°05' W 080°05'2 1.6
2015-May-14 19:31N 26°05' W 080°07'0 0.0
2015-May-14 18:31N 26°05' W 080°07'0 0.0
2015-May-14 17:31N 26°05' W 080°07'0 0.0
2015-May-14 16:19N 26°05' W 080°07'0 0.0
2015-May-14 15:22N 26°05' W 080°07'0 0.0
2015-May-14 14:25N 26°05' W 080°07'0 0.0
2015-May-14 13:25N 26°05' W 080°07'0 0.0
2015-May-14 12:25N 26°05' W 080°07'0 0.0
2015-May-14 11:25N 26°05' W 080°07'0 0.0
2015-May-14 10:25N 26°05' W 080°07'0 0.0
2015-May-14 09:28N 26°05' W 080°07'0 0.0
2015-May-14 08:28N 26°05' W 080°07'0 0.0
2015-May-14 07:28N 26°05' W 080°07'0 0.0
2015-May-14 06:28N 26°05' W 080°07'0 0.0
2015-May-14 05:28N 26°05' W 080°07'0 0.0
2015-May-14 04:31N 26°05' W 080°07'0 0.0
2015-May-14 03:31N 26°05' W 080°07'0 0.0
2015-May-14 02:31N 26°05' W 080°07'0 0.0
2015-May-14 01:28N 26°05' W 080°07'0 0.0
2015-May-14 00:31N 26°05' W 080°07'0 0.0
2015-May-13 23:31N 26°05' W 080°07'0 0.0
2015-May-13 22:31N 26°05' W 080°07'0 0.0
2015-May-13 21:34N 26°05' W 080°07'0 0.0
2015-May-13 20:33N 26°05' W 080°07'0 0.0
2015-May-13 19:33N 26°05' W 080°07'0 0.0
2015-May-13 18:33N 26°05' W 080°07'0 0.0
2015-May-13 17:33N 26°05' W 080°07'0 0.0
2015-May-13 16:33N 26°05' W 080°07'0 0.0
2015-May-13 15:33N 26°05' W 080°07'0 0.0
2015-May-13 14:33N 26°05' W 080°07'6 5.6
2015-May-13 13:33N 26°01' W 080°03'1312.9
2015-May-13 12:33N 25°48' W 080°03'  
Track history (hours):
 
Tides and Currents Weather Stations Pressure Air Temp Water Temp Dewpoint Dewpoint Depression Visibility Wind Speed Wind Dir Waves Ship Positions

Caribe Navigator

Last reported at 2015-May-22 00:32 UTC. Time now 2015-May-24 03:07 UTC.
Position N 25°31' W 080°01'.

Length 100 m; draft 5.3 m.

Type: Cargo ship. MMSI: 305289000.

Date/timePositionNaut miles runAvg speedWind from/ knotsBaromVisibWave heightAir tempDewpointWater temp
2015-May-22 00:32N 25°31' W 080°01'10 9.9
2015-May-21 23:33N 25°40' W 080°01'1111.1
2015-May-21 22:33N 25°51' W 080°03'1211.7
2015-May-21 21:33N 26°03' W 080°05'3 2.9
2015-May-21 20:25N 26°05' W 080°07'0 0.0
2015-May-21 19:25N 26°05' W 080°07'0 0.0
2015-May-21 18:25N 26°05' W 080°07'0 0.0
2015-May-21 17:25N 26°05' W 080°07'0 0.0
2015-May-21 16:25N 26°05' W 080°07'0 0.0
2015-May-21 15:28N 26°05' W 080°07'0 0.0
2015-May-21 14:28N 26°05' W 080°07'0 0.0
2015-May-21 13:28N 26°05' W 080°07'0 0.0
2015-May-21 12:28N 26°05' W 080°07'0 0.0
2015-May-21 11:28N 26°05' W 080°07'0 0.0
2015-May-21 10:28N 26°05' W 080°07'0 0.0
2015-May-21 09:31N 26°05' W 080°07'0 0.0
2015-May-21 08:31N 26°05' W 080°07'0 0.0
2015-May-21 07:31N 26°05' W 080°07'0 0.0
2015-May-21 06:31N 26°05' W 080°07'0 0.0
2015-May-21 05:31N 26°05' W 080°07'0 0.0
2015-May-21 04:33N 26°05' W 080°07'0 0.0
2015-May-21 03:33N 26°05' W 080°07'0 0.0
2015-May-21 02:33N 26°05' W 080°07'0 0.0
2015-May-21 01:33N 26°05' W 080°07'0 0.0
2015-May-21 00:33N 26°05' W 080°07'0 0.0
2015-May-20 23:33N 26°05' W 080°07'0 0.0
2015-May-20 22:33N 26°05' W 080°07'0 0.0
2015-May-20 21:33N 26°05' W 080°07'0 0.0
2015-May-20 20:33N 26°05' W 080°07'0 0.0
2015-May-20 19:33N 26°05' W 080°07'0 0.0
2015-May-20 18:33N 26°05' W 080°07'4 4.1
2015-May-20 17:33N 26°03' W 080°03'1 0.9
2015-May-20 16:33N 26°03' W 080°04'9 9.1
2015-May-20 15:33N 25°54' W 080°01'  
2015-May-14 23:33N 25°37' W 080°02'10 9.6
2015-May-14 22:33N 25°46' W 080°02'9 9.4
2015-May-14 21:33N 25°55' W 080°04'1010.1
2015-May-14 20:33N 26°05' W 080°05'2 1.6
2015-May-14 19:31N 26°05' W 080°07'0 0.0
2015-May-14 18:31N 26°05' W 080°07'0 0.0
2015-May-14 17:31N 26°05' W 080°07'0 0.0
2015-May-14 16:19N 26°05' W 080°07'0 0.0
2015-May-14 15:22N 26°05' W 080°07'0 0.0
2015-May-14 14:25N 26°05' W 080°07'0 0.0
2015-May-14 13:25N 26°05' W 080°07'0 0.0
2015-May-14 12:25N 26°05' W 080°07'0 0.0
2015-May-14 11:25N 26°05' W 080°07'0 0.0
2015-May-14 10:25N 26°05' W 080°07'0 0.0
2015-May-14 09:28N 26°05' W 080°07'0 0.0
2015-May-14 08:28N 26°05' W 080°07'0 0.0
2015-May-14 07:28N 26°05' W 080°07'0 0.0
2015-May-14 06:28N 26°05' W 080°07'0 0.0
2015-May-14 05:28N 26°05' W 080°07'0 0.0
2015-May-14 04:31N 26°05' W 080°07'0 0.0
2015-May-14 03:31N 26°05' W 080°07'0 0.0
2015-May-14 02:31N 26°05' W 080°07'0 0.0
2015-May-14 01:28N 26°05' W 080°07'0 0.0
2015-May-14 00:31N 26°05' W 080°07'0 0.0
2015-May-13 23:31N 26°05' W 080°07'0 0.0
2015-May-13 22:31N 26°05' W 080°07'0 0.0
2015-May-13 21:34N 26°05' W 080°07'0 0.0
2015-May-13 20:33N 26°05' W 080°07'0 0.0
2015-May-13 19:33N 26°05' W 080°07'0 0.0
2015-May-13 18:33N 26°05' W 080°07'0 0.0
2015-May-13 17:33N 26°05' W 080°07'0 0.0
2015-May-13 16:33N 26°05' W 080°07'0 0.0
2015-May-13 15:33N 26°05' W 080°07'0 0.0
2015-May-13 14:33N 26°05' W 080°07'6 5.6
2015-May-13 13:33N 26°01' W 080°03'1312.9
2015-May-13 12:33N 25°48' W 080°03'  

Dump ship's entire track history